Terminal Aerodrome Forecast
Issued by NWS Caribou, ME

Home | Current Version | Previous Version | Text Only | Print | Product List | Glossary On
Versions: 1 2 3 4 5 6 7 8 9 10 11 12 13 14 15 16 17 18 19 20 21
000
FTUS41 KCAR 012348
TAFCAR
TAF
KCAR 012348Z 0200/0224 14010KT 2SM RA SCT025 OVC040
     FM020100 15010KT P6SM OVC015
     FM020300 16009KT P6SM OVC010
     FM020500 18009KT P6SM OVC008
     FM020800 20010KT P6SM BKN015
     FM021100 23010G20KT P6SM SCT020 BKN035
     FM021700 25012G22KT P6SM BKN045=

USA.gov is the U.S. government's official web portal to all federal, state and local government web resources and services.